sensor_id;sensor_type;location;lat;lon;timestamp;P1;durP1;ratioP1;P2;durP2;ratioP2
2213;SDS011;1113;42.018;23.986;2024-01-15T00:01:06;96.57;;;46.72;;
2213;SDS011;1113;42.018;23.986;2024-01-15T00:03:35;80.78;;;40.38;;
2213;SDS011;1113;42.018;23.986;2024-01-15T00:06:02;70.35;;;37.60;;
2213;SDS011;1113;42.018;23.986;2024-01-15T00:08:30;105.70;;;48.15;;
2213;SDS011;1113;42.018;23.986;2024-01-15T00:10:57;91.53;;;43.22;;
2213;SDS011;1113;42.018;23.986;2024-01-15T00:13:24;91.05;;;44.28;;
2213;SDS011;1113;42.018;23.986;2024-01-15T00:15:51;78.50;;;42.25;;
2213;SDS011;1113;42.018;23.986;2024-01-15T00:18:18;99.65;;;45.80;;
2213;SDS011;1113;42.018;23.986;2024-01-15T00:20:47;88.95;;;41.17;;
2213;SDS011;1113;42.018;23.986;2024-01-15T00:23:14;54.47;;;29.20;;
2213;SDS011;1113;42.018;23.986;2024-01-15T00:25:41;59.13;;;32.00;;
2213;SDS011;1113;42.018;23.986;2024-01-15T00:28:08;77.65;;;36.70;;
2213;SDS011;1113;42.018;23.986;2024-01-15T00:30:35;62.17;;;33.17;;
2213;SDS011;1113;42.018;23.986;2024-01-15T00:33:02;55.70;;;32.05;;
2213;SDS011;1113;42.018;23.986;2024-01-15T00:35:29;65.90;;;34.85;;
2213;SDS011;1113;42.018;23.986;2024-01-15T00:37:58;52.40;;;30.17;;
2213;SDS011;1113;42.018;23.986;2024-01-15T00:40:25;38.08;;;22.33;;
2213;SDS011;1113;42.018;23.986;2024-01-15T00:42:52;42.00;;;24.50;;
2213;SDS011;1113;42.018;23.986;2024-01-15T00:45:19;47.22;;;26.13;;
2213;SDS011;1113;42.018;23.986;2024-01-15T00:47:46;58.47;;;28.08;;
2213;SDS011;1113;42.018;23.986;2024-01-15T00:50:14;56.00;;;26.20;;
2213;SDS011;1113;42.018;23.986;2024-01-15T00:52:41;50.63;;;26.90;;
2213;SDS011;1113;42.018;23.986;2024-01-15T00:55:09;48.53;;;27.25;;
2213;SDS011;1113;42.018;23.986;2024-01-15T00:57:36;45.90;;;26.75;;
2213;SDS011;1113;42.018;23.986;2024-01-15T01:00:04;55.65;;;31.08;;
2213;SDS011;1113;42.018;23.986;2024-01-15T01:02:32;45.25;;;24.63;;
2213;SDS011;1113;42.018;23.986;2024-01-15T01:04:59;47.97;;;26.75;;
2213;SDS011;1113;42.018;23.986;2024-01-15T01:07:26;46.10;;;27.05;;
2213;SDS011;1113;42.018;23.986;2024-01-15T01:09:53;58.30;;;28.17;;
2213;SDS011;1113;42.018;23.986;2024-01-15T01:12:22;47.47;;;26.05;;
2213;SDS011;1113;42.018;23.986;2024-01-15T01:14:49;57.30;;;27.75;;
2213;SDS011;1113;42.018;23.986;2024-01-15T01:17:16;55.13;;;30.67;;
2213;SDS011;1113;42.018;23.986;2024-01-15T01:19:46;59.65;;;30.10;;
2213;SDS011;1113;42.018;23.986;2024-01-15T01:22:13;50.65;;;28.60;;
2213;SDS011;1113;42.018;23.986;2024-01-15T01:24:40;52.85;;;28.60;;
2213;SDS011;1113;42.018;23.986;2024-01-15T01:27:07;43.97;;;27.00;;
2213;SDS011;1113;42.018;23.986;2024-01-15T01:29:35;48.63;;;29.90;;
2213;SDS011;1113;42.018;23.986;2024-01-15T01:32:02;67.65;;;33.08;;
2213;SDS011;1113;42.018;23.986;2024-01-15T01:34:32;62.63;;;33.70;;
2213;SDS011;1113;42.018;23.986;2024-01-15T01:37:06;52.53;;;28.98;;
2213;SDS011;1113;42.018;23.986;2024-01-15T01:39:33;57.10;;;28.55;;
2213;SDS011;1113;42.018;23.986;2024-01-15T01:42:00;44.35;;;23.90;;
2213;SDS011;1113;42.018;23.986;2024-01-15T01:44:27;52.72;;;25.35;;
2213;SDS011;1113;42.018;23.986;2024-01-15T01:46:56;51.47;;;28.73;;
2213;SDS011;1113;42.018;23.986;2024-01-15T01:49:23;48.75;;;24.58;;
2213;SDS011;1113;42.018;23.986;2024-01-15T01:51:52;47.97;;;25.77;;
2213;SDS011;1113;42.018;23.986;2024-01-15T01:54:20;42.97;;;24.27;;
2213;SDS011;1113;42.018;23.986;2024-01-15T01:56:47;48.25;;;27.00;;
2213;SDS011;1113;42.018;23.986;2024-01-15T01:59:19;50.70;;;29.17;;
2213;SDS011;1113;42.018;23.986;2024-01-15T02:01:46;42.42;;;22.98;;
2213;SDS011;1113;42.018;23.986;2024-01-15T02:04:16;34.70;;;19.50;;
2213;SDS011;1113;42.018;23.986;2024-01-15T02:06:44;26.38;;;16.13;;
2213;SDS011;1113;42.018;23.986;2024-01-15T02:09:11;31.52;;;17.38;;
2213;SDS011;1113;42.018;23.986;2024-01-15T02:11:40;30.25;;;16.80;;
2213;SDS011;1113;42.018;23.986;2024-01-15T02:14:08;32.33;;;17.23;;
2213;SDS011;1113;42.018;23.986;2024-01-15T02:16:36;32.38;;;17.90;;
2213;SDS011;1113;42.018;23.986;2024-01-15T02:19:03;36.35;;;21.45;;
2213;SDS011;1113;42.018;23.986;2024-01-15T02:21:32;36.80;;;21.10;;
2213;SDS011;1113;42.018;23.986;2024-01-15T02:24:00;39.40;;;24.27;;
2213;SDS011;1113;42.018;23.986;2024-01-15T02:26:28;74.15;;;35.20;;
2213;SDS011;1113;42.018;23.986;2024-01-15T02:28:55;56.50;;;30.83;;
2213;SDS011;1113;42.018;23.986;2024-01-15T02:31:22;56.67;;;29.58;;
2213;SDS011;1113;42.018;23.986;2024-01-15T02:33:49;52.25;;;26.58;;
2213;SDS011;1113;42.018;23.986;2024-01-15T02:36:16;39.35;;;23.33;;
2213;SDS011;1113;42.018;23.986;2024-01-15T02:38:43;42.80;;;22.50;;
2213;SDS011;1113;42.018;23.986;2024-01-15T02:41:11;46.50;;;23.75;;
2213;SDS011;1113;42.018;23.986;2024-01-15T02:43:39;40.72;;;23.05;;
2213;SDS011;1113;42.018;23.986;2024-01-15T02:46:07;40.95;;;20.45;;
2213;SDS011;1113;42.018;23.986;2024-01-15T02:48:34;43.65;;;23.02;;
2213;SDS011;1113;42.018;23.986;2024-01-15T02:51:01;43.72;;;23.80;;
2213;SDS011;1113;42.018;23.986;2024-01-15T02:53:30;44.67;;;24.98;;
2213;SDS011;1113;42.018;23.986;2024-01-15T02:55:57;47.45;;;24.73;;
2213;SDS011;1113;42.018;23.986;2024-01-15T02:58:26;43.78;;;24.02;;
2213;SDS011;1113;42.018;23.986;2024-01-15T03:00:52;44.78;;;25.27;;
2213;SDS011;1113;42.018;23.986;2024-01-15T03:03:19;39.90;;;22.98;;
2213;SDS011;1113;42.018;23.986;2024-01-15T03:05:46;41.20;;;23.15;;
2213;SDS011;1113;42.018;23.986;2024-01-15T03:08:13;40.78;;;23.02;;
2213;SDS011;1113;42.018;23.986;2024-01-15T03:10:41;42.85;;;24.13;;
2213;SDS011;1113;42.018;23.986;2024-01-15T03:13:08;41.45;;;21.73;;
2213;SDS011;1113;42.018;23.986;2024-01-15T03:15:36;45.65;;;25.10;;
2213;SDS011;1113;42.018;23.986;2024-01-15T03:18:04;46.15;;;23.55;;
2213;SDS011;1113;42.018;23.986;2024-01-15T03:20:32;42.42;;;25.13;;
2213;SDS011;1113;42.018;23.986;2024-01-15T03:22:59;49.15;;;25.48;;
2213;SDS011;1113;42.018;23.986;2024-01-15T03:25:26;51.67;;;28.08;;
2213;SDS011;1113;42.018;23.986;2024-01-15T03:27:53;51.00;;;26.00;;
2213;SDS011;1113;42.018;23.986;2024-01-15T03:30:20;40.47;;;24.05;;
2213;SDS011;1113;42.018;23.986;2024-01-15T03:32:48;40.15;;;22.50;;
2213;SDS011;1113;42.018;23.986;2024-01-15T03:35:16;40.97;;;22.40;;
2213;SDS011;1113;42.018;23.986;2024-01-15T03:37:43;34.88;;;19.73;;
2213;SDS011;1113;42.018;23.986;2024-01-15T03:40:10;32.63;;;19.52;;
2213;SDS011;1113;42.018;23.986;2024-01-15T03:42:38;36.95;;;21.13;;
2213;SDS011;1113;42.018;23.986;2024-01-15T03:45:05;33.25;;;19.75;;
2213;SDS011;1113;42.018;23.986;2024-01-15T03:47:32;34.30;;;18.60;;
2213;SDS011;1113;42.018;23.986;2024-01-15T03:50:01;34.15;;;18.15;;
2213;SDS011;1113;42.018;23.986;2024-01-15T03:52:28;33.20;;;19.08;;
2213;SDS011;1113;42.018;23.986;2024-01-15T03:54:55;29.02;;;18.50;;
2213;SDS011;1113;42.018;23.986;2024-01-15T03:57:22;30.35;;;18.27;;
2213;SDS011;1113;42.018;23.986;2024-01-15T03:59:49;34.78;;;20.73;;
2213;SDS011;1113;42.018;23.986;2024-01-15T04:02:16;32.67;;;20.20;;
2213;SDS011;1113;42.018;23.986;2024-01-15T04:04:43;32.03;;;20.80;;
2213;SDS011;1113;42.018;23.986;2024-01-15T04:07:12;31.27;;;18.73;;
2213;SDS011;1113;42.018;23.986;2024-01-15T04:09:39;35.80;;;21.33;;
2213;SDS011;1113;42.018;23.986;2024-01-15T04:12:06;30.00;;;19.92;;
2213;SDS011;1113;42.018;23.986;2024-01-15T04:14:33;27.65;;;15.98;;
2213;SDS011;1113;42.018;23.986;2024-01-15T04:17:00;34.05;;;18.73;;
2213;SDS011;1113;42.018;23.986;2024-01-15T04:19:27;31.33;;;17.58;;
2213;SDS011;1113;42.018;23.986;2024-01-15T04:21:54;24.42;;;15.50;;
2213;SDS011;1113;42.018;23.986;2024-01-15T04:24:22;30.38;;;18.50;;
2213;SDS011;1113;42.018;23.986;2024-01-15T04:26:49;34.97;;;19.40;;
2213;SDS011;1113;42.018;23.986;2024-01-15T04:29:16;33.92;;;19.98;;
2213;SDS011;1113;42.018;23.986;2024-01-15T04:31:43;26.88;;;17.00;;
2213;SDS011;1113;42.018;23.986;2024-01-15T04:34:10;32.05;;;18.10;;
2213;SDS011;1113;42.018;23.986;2024-01-15T04:36:38;29.08;;;18.10;;
2213;SDS011;1113;42.018;23.986;2024-01-15T04:39:06;28.10;;;16.95;;
2213;SDS011;1113;42.018;23.986;2024-01-15T04:41:35;25.83;;;15.25;;
2213;SDS011;1113;42.018;23.986;2024-01-15T04:44:02;36.67;;;20.52;;
2213;SDS011;1113;42.018;23.986;2024-01-15T04:46:29;27.92;;;16.40;;
2213;SDS011;1113;42.018;23.986;2024-01-15T04:48:56;29.00;;;17.45;;
2213;SDS011;1113;42.018;23.986;2024-01-15T04:51:23;29.20;;;15.52;;
2213;SDS011;1113;42.018;23.986;2024-01-15T04:53:50;28.20;;;16.38;;
2213;SDS011;1113;42.018;23.986;2024-01-15T04:56:17;23.75;;;17.85;;
2213;SDS011;1113;42.018;23.986;2024-01-15T04:58:46;25.55;;;17.27;;
2213;SDS011;1113;42.018;23.986;2024-01-15T05:01:13;25.42;;;15.38;;
2213;SDS011;1113;42.018;23.986;2024-01-15T05:03:42;25.75;;;17.23;;
2213;SDS011;1113;42.018;23.986;2024-01-15T05:06:09;27.98;;;16.92;;
2213;SDS011;1113;42.018;23.986;2024-01-15T05:08:36;25.77;;;14.88;;
2213;SDS011;1113;42.018;23.986;2024-01-15T05:11:03;25.90;;;14.75;;
2213;SDS011;1113;42.018;23.986;2024-01-15T05:13:30;22.73;;;15.10;;
2213;SDS011;1113;42.018;23.986;2024-01-15T05:15:59;25.33;;;16.17;;
2213;SDS011;1113;42.018;23.986;2024-01-15T05:18:26;25.38;;;15.30;;
2213;SDS011;1113;42.018;23.986;2024-01-15T05:20:53;29.58;;;18.98;;
2213;SDS011;1113;42.018;23.986;2024-01-15T05:23:20;30.17;;;20.52;;
2213;SDS011;1113;42.018;23.986;2024-01-15T05:25:47;38.80;;;21.63;;
2213;SDS011;1113;42.018;23.986;2024-01-15T05:28:14;58.03;;;33.40;;
2213;SDS011;1113;42.018;23.986;2024-01-15T05:30:41;59.63;;;37.03;;
2213;SDS011;1113;42.018;23.986;2024-01-15T05:33:09;65.72;;;35.33;;
2213;SDS011;1113;42.018;23.986;2024-01-15T05:35:36;67.15;;;36.70;;
2213;SDS011;1113;42.018;23.986;2024-01-15T05:38:03;70.72;;;40.67;;
2213;SDS011;1113;42.018;23.986;2024-01-15T05:40:30;72.00;;;36.78;;
2213;SDS011;1113;42.018;23.986;2024-01-15T05:42:57;68.22;;;35.75;;
2213;SDS011;1113;42.018;23.986;2024-01-15T05:45:25;71.10;;;36.30;;
2213;SDS011;1113;42.018;23.986;2024-01-15T05:47:52;65.40;;;34.13;;
2213;SDS011;1113;42.018;23.986;2024-01-15T05:50:22;67.57;;;38.95;;
2213;SDS011;1113;42.018;23.986;2024-01-15T05:52:49;66.22;;;37.67;;
2213;SDS011;1113;42.018;23.986;2024-01-15T05:55:17;90.35;;;44.70;;
2213;SDS011;1113;42.018;23.986;2024-01-15T05:57:44;108.18;;;58.88;;
2213;SDS011;1113;42.018;23.986;2024-01-15T06:00:12;81.13;;;46.42;;
2213;SDS011;1113;42.018;23.986;2024-01-15T06:02:39;61.15;;;34.25;;
2213;SDS011;1113;42.018;23.986;2024-01-15T06:05:06;62.03;;;31.63;;
2213;SDS011;1113;42.018;23.986;2024-01-15T06:07:35;49.13;;;27.92;;
2213;SDS011;1113;42.018;23.986;2024-01-15T06:10:03;47.20;;;29.83;;
2213;SDS011;1113;42.018;23.986;2024-01-15T06:12:30;46.55;;;25.77;;
2213;SDS011;1113;42.018;23.986;2024-01-15T06:14:58;41.15;;;21.40;;
2213;SDS011;1113;42.018;23.986;2024-01-15T06:17:26;38.58;;;25.42;;
2213;SDS011;1113;42.018;23.986;2024-01-15T06:19:53;42.47;;;25.10;;
2213;SDS011;1113;42.018;23.986;2024-01-15T06:22:20;50.85;;;28.55;;
2213;SDS011;1113;42.018;23.986;2024-01-15T06:24:48;48.30;;;26.40;;
2213;SDS011;1113;42.018;23.986;2024-01-15T06:27:16;60.80;;;28.50;;
2213;SDS011;1113;42.018;23.986;2024-01-15T06:29:44;59.72;;;33.60;;
2213;SDS011;1113;42.018;23.986;2024-01-15T06:32:12;49.80;;;29.35;;
2213;SDS011;1113;42.018;23.986;2024-01-15T06:34:39;41.70;;;24.52;;
2213;SDS011;1113;42.018;23.986;2024-01-15T06:37:06;52.00;;;31.08;;
2213;SDS011;1113;42.018;23.986;2024-01-15T06:39:34;69.72;;;35.63;;
2213;SDS011;1113;42.018;23.986;2024-01-15T06:42:02;68.43;;;39.42;;
2213;SDS011;1113;42.018;23.986;2024-01-15T06:44:30;111.43;;;54.42;;
2213;SDS011;1113;42.018;23.986;2024-01-15T06:46:57;98.82;;;50.75;;
2213;SDS011;1113;42.018;23.986;2024-01-15T06:49:27;94.40;;;50.42;;
2213;SDS011;1113;42.018;23.986;2024-01-15T06:51:55;89.75;;;46.33;;
2213;SDS011;1113;42.018;23.986;2024-01-15T06:54:22;86.28;;;46.65;;
2213;SDS011;1113;42.018;23.986;2024-01-15T06:56:51;109.38;;;49.97;;
2213;SDS011;1113;42.018;23.986;2024-01-15T06:59:20;101.30;;;52.42;;
2213;SDS011;1113;42.018;23.986;2024-01-15T07:01:48;95.68;;;51.58;;
2213;SDS011;1113;42.018;23.986;2024-01-15T07:04:15;101.35;;;51.88;;
2213;SDS011;1113;42.018;23.986;2024-01-15T07:06:43;91.45;;;48.65;;
2213;SDS011;1113;42.018;23.986;2024-01-15T07:09:10;100.53;;;51.25;;
2213;SDS011;1113;42.018;23.986;2024-01-15T07:11:37;95.28;;;49.50;;
2213;SDS011;1113;42.018;23.986;2024-01-15T07:14:04;107.03;;;56.88;;
2213;SDS011;1113;42.018;23.986;2024-01-15T07:16:32;138.82;;;67.53;;
2213;SDS011;1113;42.018;23.986;2024-01-15T07:18:59;129.93;;;68.85;;
2213;SDS011;1113;42.018;23.986;2024-01-15T07:21:27;156.40;;;81.03;;
2213;SDS011;1113;42.018;23.986;2024-01-15T07:23:55;165.73;;;85.28;;
2213;SDS011;1113;42.018;23.986;2024-01-15T07:26:22;150.32;;;82.53;;
2213;SDS011;1113;42.018;23.986;2024-01-15T07:28:50;167.00;;;88.38;;
2213;SDS011;1113;42.018;23.986;2024-01-15T07:31:17;154.05;;;83.40;;
2213;SDS011;1113;42.018;23.986;2024-01-15T07:33:46;153.70;;;83.75;;
2213;SDS011;1113;42.018;23.986;2024-01-15T07:36:14;147.48;;;75.63;;
2213;SDS011;1113;42.018;23.986;2024-01-15T07:38:41;103.32;;;54.42;;
2213;SDS011;1113;42.018;23.986;2024-01-15T07:41:08;108.90;;;54.63;;
2213;SDS011;1113;42.018;23.986;2024-01-15T07:43:36;100.88;;;54.70;;
2213;SDS011;1113;42.018;23.986;2024-01-15T07:46:05;107.10;;;57.92;;
2213;SDS011;1113;42.018;23.986;2024-01-15T07:48:33;93.88;;;51.63;;
2213;SDS011;1113;42.018;23.986;2024-01-15T07:51:02;90.07;;;51.40;;
2213;SDS011;1113;42.018;23.986;2024-01-15T07:53:30;106.70;;;57.97;;
2213;SDS011;1113;42.018;23.986;2024-01-15T07:55:57;123.18;;;63.00;;
2213;SDS011;1113;42.018;23.986;2024-01-15T07:58:24;110.20;;;60.42;;
2213;SDS011;1113;42.018;23.986;2024-01-15T08:00:52;109.88;;;63.28;;
2213;SDS011;1113;42.018;23.986;2024-01-15T08:03:19;121.25;;;66.90;;
2213;SDS011;1113;42.018;23.986;2024-01-15T08:05:46;125.05;;;66.25;;
2213;SDS011;1113;42.018;23.986;2024-01-15T08:08:19;112.53;;;65.30;;
2213;SDS011;1113;42.018;23.986;2024-01-15T08:10:47;96.63;;;54.55;;
2213;SDS011;1113;42.018;23.986;2024-01-15T08:13:14;109.82;;;64.82;;
2213;SDS011;1113;42.018;23.986;2024-01-15T08:15:41;106.28;;;60.75;;
2213;SDS011;1113;42.018;23.986;2024-01-15T08:18:09;72.90;;;43.78;;
2213;SDS011;1113;42.018;23.986;2024-01-15T08:20:36;71.90;;;46.30;;
2213;SDS011;1113;42.018;23.986;2024-01-15T08:23:03;69.20;;;39.85;;
2213;SDS011;1113;42.018;23.986;2024-01-15T08:25:32;60.80;;;37.58;;
2213;SDS011;1113;42.018;23.986;2024-01-15T08:27:59;65.47;;;38.58;;
2213;SDS011;1113;42.018;23.986;2024-01-15T08:30:26;66.25;;;40.03;;
2213;SDS011;1113;42.018;23.986;2024-01-15T08:32:53;89.85;;;53.22;;
2213;SDS011;1113;42.018;23.986;2024-01-15T08:35:31;83.50;;;50.75;;
2213;SDS011;1113;42.018;23.986;2024-01-15T08:37:58;79.97;;;50.50;;
2213;SDS011;1113;42.018;23.986;2024-01-15T08:40:25;80.32;;;47.70;;
2213;SDS011;1113;42.018;23.986;2024-01-15T08:42:54;82.68;;;46.60;;
2213;SDS011;1113;42.018;23.986;2024-01-15T08:45:21;70.93;;;45.67;;
2213;SDS011;1113;42.018;23.986;2024-01-15T08:47:48;78.28;;;43.42;;
2213;SDS011;1113;42.018;23.986;2024-01-15T08:50:15;52.90;;;29.50;;
2213;SDS011;1113;42.018;23.986;2024-01-15T08:52:42;59.15;;;33.65;;
2213;SDS011;1113;42.018;23.986;2024-01-15T08:55:09;59.25;;;36.50;;
2213;SDS011;1113;42.018;23.986;2024-01-15T08:57:38;59.17;;;35.42;;
2213;SDS011;1113;42.018;23.986;2024-01-15T09:00:07;54.35;;;34.95;;
2213;SDS011;1113;42.018;23.986;2024-01-15T09:02:35;92.53;;;51.05;;
2213;SDS011;1113;42.018;23.986;2024-01-15T09:05:03;126.03;;;68.85;;
2213;SDS011;1113;42.018;23.986;2024-01-15T09:07:31;120.07;;;73.40;;
2213;SDS011;1113;42.018;23.986;2024-01-15T09:09:58;122.78;;;74.22;;
2213;SDS011;1113;42.018;23.986;2024-01-15T09:12:26;114.35;;;71.03;;
2213;SDS011;1113;42.018;23.986;2024-01-15T09:14:53;103.07;;;61.83;;
2213;SDS011;1113;42.018;23.986;2024-01-15T09:17:22;103.40;;;59.53;;
2213;SDS011;1113;42.018;23.986;2024-01-15T09:19:49;79.00;;;47.95;;
2213;SDS011;1113;42.018;23.986;2024-01-15T09:22:17;71.88;;;46.47;;
2213;SDS011;1113;42.018;23.986;2024-01-15T09:24:44;70.43;;;41.85;;
2213;SDS011;1113;42.018;23.986;2024-01-15T09:27:11;54.90;;;38.15;;
2213;SDS011;1113;42.018;23.986;2024-01-15T09:29:38;56.70;;;37.80;;
2213;SDS011;1113;42.018;23.986;2024-01-15T09:32:07;65.20;;;43.13;;
2213;SDS011;1113;42.018;23.986;2024-01-15T09:34:36;66.93;;;44.45;;
2213;SDS011;1113;42.018;23.986;2024-01-15T09:37:03;62.22;;;45.15;;
2213;SDS011;1113;42.018;23.986;2024-01-15T09:39:31;68.18;;;45.38;;
2213;SDS011;1113;42.018;23.986;2024-01-15T09:41:58;64.57;;;41.72;;
2213;SDS011;1113;42.018;23.986;2024-01-15T09:44:26;68.50;;;42.67;;
2213;SDS011;1113;42.018;23.986;2024-01-15T09:46:55;61.83;;;41.80;;
2213;SDS011;1113;42.018;23.986;2024-01-15T09:49:22;92.22;;;47.95;;
2213;SDS011;1113;42.018;23.986;2024-01-15T09:51:51;63.75;;;44.17;;
2213;SDS011;1113;42.018;23.986;2024-01-15T09:54:18;79.60;;;49.35;;
2213;SDS011;1113;42.018;23.986;2024-01-15T09:56:46;79.38;;;47.75;;
2213;SDS011;1113;42.018;23.986;2024-01-15T09:59:14;61.42;;;39.13;;
2213;SDS011;1113;42.018;23.986;2024-01-15T10:01:43;59.05;;;37.90;;
2213;SDS011;1113;42.018;23.986;2024-01-15T10:04:10;59.15;;;37.17;;
2213;SDS011;1113;42.018;23.986;2024-01-15T10:06:38;50.22;;;31.80;;
2213;SDS011;1113;42.018;23.986;2024-01-15T10:09:09;47.38;;;30.73;;
2213;SDS011;1113;42.018;23.986;2024-01-15T10:11:36;39.88;;;26.58;;
2213;SDS011;1113;42.018;23.986;2024-01-15T10:14:04;34.13;;;22.70;;
2213;SDS011;1113;42.018;23.986;2024-01-15T10:16:31;25.65;;;18.83;;
2213;SDS011;1113;42.018;23.986;2024-01-15T10:18:58;35.05;;;24.10;;
2213;SDS011;1113;42.018;23.986;2024-01-15T10:21:25;31.35;;;22.45;;
2213;SDS011;1113;42.018;23.986;2024-01-15T10:23:53;32.40;;;22.33;;
2213;SDS011;1113;42.018;23.986;2024-01-15T10:26:25;31.52;;;19.98;;
2213;SDS011;1113;42.018;23.986;2024-01-15T10:28:53;32.30;;;20.65;;
2213;SDS011;1113;42.018;23.986;2024-01-15T10:31:20;29.35;;;22.50;;
2213;SDS011;1113;42.018;23.986;2024-01-15T10:33:47;34.35;;;25.50;;
2213;SDS011;1113;42.018;23.986;2024-01-15T10:36:14;34.50;;;25.65;;
2213;SDS011;1113;42.018;23.986;2024-01-15T10:38:42;31.60;;;22.43;;
2213;SDS011;1113;42.018;23.986;2024-01-15T10:41:10;36.07;;;24.77;;
2213;SDS011;1113;42.018;23.986;2024-01-15T10:43:39;34.97;;;26.50;;
2213;SDS011;1113;42.018;23.986;2024-01-15T10:46:06;33.67;;;23.97;;
2213;SDS011;1113;42.018;23.986;2024-01-15T10:48:34;42.77;;;29.57;;
2213;SDS011;1113;42.018;23.986;2024-01-15T10:51:01;36.50;;;29.40;;
2213;SDS011;1113;42.018;23.986;2024-01-15T10:53:35;36.23;;;27.23;;
2213;SDS011;1113;42.018;23.986;2024-01-15T10:56:05;40.13;;;28.50;;
2213;SDS011;1113;42.018;23.986;2024-01-15T10:58:32;50.03;;;32.20;;
2213;SDS011;1113;42.018;23.986;2024-01-15T11:01:02;44.07;;;28.93;;
2213;SDS011;1113;42.018;23.986;2024-01-15T11:03:31;34.40;;;22.80;;
2213;SDS011;1113;42.018;23.986;2024-01-15T11:05:59;28.70;;;20.50;;
2213;SDS011;1113;42.018;23.986;2024-01-15T11:08:26;34.07;;;23.20;;
2213;SDS011;1113;42.018;23.986;2024-01-15T11:10:53;25.00;;;19.20;;
2213;SDS011;1113;42.018;23.986;2024-01-15T11:13:23;28.20;;;21.60;;
2213;SDS011;1113;42.018;23.986;2024-01-15T11:16:09;29.00;;;20.40;;
2213;SDS011;1113;42.018;23.986;2024-01-15T11:18:37;31.37;;;22.27;;
2213;SDS011;1113;42.018;23.986;2024-01-15T11:21:22;34.10;;;24.90;;
2213;SDS011;1113;42.018;23.986;2024-01-15T11:23:51;42.30;;;30.47;;
2213;SDS011;1113;42.018;23.986;2024-01-15T11:26:29;35.20;;;26.87;;
2213;SDS011;1113;42.018;23.986;2024-01-15T11:28:59;37.13;;;27.97;;
2213;SDS011;1113;42.018;23.986;2024-01-15T11:37:27;5.57;;;3.90;;
2213;SDS011;1113;42.018;23.986;2024-01-15T11:39:55;14.03;;;7.60;;
2213;SDS011;1113;42.018;23.986;2024-01-15T11:42:28;3.17;;;1.87;;
2213;SDS011;1113;42.018;23.986;2024-01-15T11:44:56;3.10;;;1.70;;
2213;SDS011;1113;42.018;23.986;2024-01-15T11:50:26;2.47;;;1.40;;
2213;SDS011;1113;42.018;23.986;2024-01-15T11:52:59;3.37;;;1.40;;
2213;SDS011;1113;42.018;23.986;2024-01-15T11:55:29;2.80;;;1.47;;
2213;SDS011;1113;42.018;23.986;2024-01-15T11:58:00;6.13;;;3.50;;
2213;SDS011;1113;42.018;23.986;2024-01-15T12:00:28;6.27;;;4.30;;
2213;SDS011;1113;42.018;23.986;2024-01-15T12:02:58;3.07;;;1.73;;
2213;SDS011;1113;42.018;23.986;2024-01-15T12:05:27;3.33;;;1.80;;
2213;SDS011;1113;42.018;23.986;2024-01-15T12:07:54;3.07;;;1.70;;
2213;SDS011;1113;42.018;23.986;2024-01-15T12:10:22;2.60;;;1.50;;
2213;SDS011;1113;42.018;23.986;2024-01-15T12:12:54;4.97;;;2.47;;
2213;SDS011;1113;42.018;23.986;2024-01-15T12:15:25;3.40;;;1.80;;
2213;SDS011;1113;42.018;23.986;2024-01-15T12:17:54;5.10;;;3.20;;
2213;SDS011;1113;42.018;23.986;2024-01-15T12:20:24;4.50;;;2.83;;
2213;SDS011;1113;42.018;23.986;2024-01-15T12:22:52;6.27;;;3.27;;
2213;SDS011;1113;42.018;23.986;2024-01-15T12:25:20;4.80;;;2.93;;
2213;SDS011;1113;42.018;23.986;2024-01-15T12:27:47;5.57;;;3.10;;
2213;SDS011;1113;42.018;23.986;2024-01-15T12:30:15;7.83;;;3.30;;
2213;SDS011;1113;42.018;23.986;2024-01-15T12:32:42;6.37;;;3.70;;
2213;SDS011;1113;42.018;23.986;2024-01-15T12:35:10;8.23;;;3.93;;
2213;SDS011;1113;42.018;23.986;2024-01-15T12:37:39;5.70;;;3.40;;
2213;SDS011;1113;42.018;23.986;2024-01-15T12:40:07;5.57;;;3.23;;
2213;SDS011;1113;42.018;23.986;2024-01-15T12:42:36;5.23;;;3.20;;
2213;SDS011;1113;42.018;23.986;2024-01-15T12:45:04;4.40;;;3.00;;
2213;SDS011;1113;42.018;23.986;2024-01-15T12:47:33;6.43;;;3.90;;
2213;SDS011;1113;42.018;23.986;2024-01-15T12:50:01;4.07;;;2.77;;
2213;SDS011;1113;42.018;23.986;2024-01-15T12:52:28;3.10;;;2.00;;
2213;SDS011;1113;42.018;23.986;2024-01-15T12:54:57;5.90;;;2.80;;
2213;SDS011;1113;42.018;23.986;2024-01-15T12:57:24;4.10;;;2.43;;
2213;SDS011;1113;42.018;23.986;2024-01-15T12:59:54;3.57;;;1.90;;
2213;SDS011;1113;42.018;23.986;2024-01-15T13:02:21;3.30;;;2.10;;
2213;SDS011;1113;42.018;23.986;2024-01-15T13:04:49;4.53;;;2.40;;
2213;SDS011;1113;42.018;23.986;2024-01-15T13:07:16;3.53;;;2.00;;
2213;SDS011;1113;42.018;23.986;2024-01-15T13:09:43;5.03;;;2.50;;
2213;SDS011;1113;42.018;23.986;2024-01-15T13:12:12;4.27;;;1.70;;
2213;SDS011;1113;42.018;23.986;2024-01-15T13:14:40;3.70;;;2.20;;
2213;SDS011;1113;42.018;23.986;2024-01-15T13:17:07;5.80;;;3.53;;
2213;SDS011;1113;42.018;23.986;2024-01-15T13:19:34;15.10;;;8.00;;
2213;SDS011;1113;42.018;23.986;2024-01-15T13:22:01;9.40;;;5.00;;
2213;SDS011;1113;42.018;23.986;2024-01-15T13:24:32;5.60;;;2.60;;
2213;SDS011;1113;42.018;23.986;2024-01-15T13:26:59;4.63;;;3.50;;
2213;SDS011;1113;42.018;23.986;2024-01-15T13:29:27;5.90;;;2.80;;
2213;SDS011;1113;42.018;23.986;2024-01-15T13:31:54;11.70;;;5.93;;
2213;SDS011;1113;42.018;23.986;2024-01-15T13:34:21;4.20;;;2.50;;
2213;SDS011;1113;42.018;23.986;2024-01-15T13:36:49;5.27;;;3.20;;
2213;SDS011;1113;42.018;23.986;2024-01-15T13:39:17;4.70;;;3.37;;
2213;SDS011;1113;42.018;23.986;2024-01-15T13:41:45;4.78;;;2.78;;
2213;SDS011;1113;42.018;23.986;2024-01-15T13:44:13;5.40;;;3.40;;
2213;SDS011;1113;42.018;23.986;2024-01-15T13:46:42;5.80;;;3.03;;
2213;SDS011;1113;42.018;23.986;2024-01-15T13:49:09;6.30;;;3.60;;
2213;SDS011;1113;42.018;23.986;2024-01-15T13:51:36;5.80;;;3.30;;
2213;SDS011;1113;42.018;23.986;2024-01-15T13:54:03;3.87;;;2.50;;
2213;SDS011;1113;42.018;23.986;2024-01-15T13:56:30;6.27;;;2.37;;
2213;SDS011;1113;42.018;23.986;2024-01-15T13:58:58;4.47;;;2.90;;
2213;SDS011;1113;42.018;23.986;2024-01-15T14:01:25;6.00;;;3.90;;
2213;SDS011;1113;42.018;23.986;2024-01-15T14:03:55;4.60;;;3.13;;
2213;SDS011;1113;42.018;23.986;2024-01-15T14:06:22;4.05;;;2.90;;
2213;SDS011;1113;42.018;23.986;2024-01-15T14:08:50;6.35;;;3.83;;
2213;SDS011;1113;42.018;23.986;2024-01-15T14:11:17;7.53;;;3.67;;
2213;SDS011;1113;42.018;23.986;2024-01-15T14:13:45;5.80;;;3.50;;
2213;SDS011;1113;42.018;23.986;2024-01-15T14:16:12;4.82;;;3.30;;
2213;SDS011;1113;42.018;23.986;2024-01-15T14:18:39;5.18;;;3.45;;
2213;SDS011;1113;42.018;23.986;2024-01-15T14:21:08;5.22;;;2.03;;
2213;SDS011;1113;42.018;23.986;2024-01-15T14:23:35;4.50;;;2.58;;
2213;SDS011;1113;42.018;23.986;2024-01-15T14:26:03;6.43;;;3.63;;
2213;SDS011;1113;42.018;23.986;2024-01-15T14:28:30;5.85;;;3.90;;
2213;SDS011;1113;42.018;23.986;2024-01-15T14:30:57;6.82;;;3.83;;
2213;SDS011;1113;42.018;23.986;2024-01-15T14:33:25;6.78;;;2.92;;
2213;SDS011;1113;42.018;23.986;2024-01-15T14:35:52;4.82;;;3.30;;
2213;SDS011;1113;42.018;23.986;2024-01-15T14:38:21;5.18;;;3.10;;
2213;SDS011;1113;42.018;23.986;2024-01-15T14:40:48;5.18;;;3.65;;
2213;SDS011;1113;42.018;23.986;2024-01-15T14:43:15;5.47;;;2.80;;
2213;SDS011;1113;42.018;23.986;2024-01-15T14:45:43;6.93;;;3.22;;
2213;SDS011;1113;42.018;23.986;2024-01-15T14:48:11;5.38;;;3.60;;
2213;SDS011;1113;42.018;23.986;2024-01-15T14:50:39;6.45;;;3.30;;